Terminal Aerodrome Forecast
Issued by NWS Amarillo, TX

Home | Current Version | Previous Version | Text Only | Print | Product List | Glossary On
Versions: 1 2 3 4 5 6 7 8 9 10 11 12 13 14 15
000
FTUS44 KAMA 252037 AAB
TAFAMA
TAF AMD
KAMA 252037Z 2521/2618 10010KT P6SM SCT050 BKN300
     FM260300 10008KT P6SM SCT050 BKN300 PROB30 2606/2609 3SM TSRA
      OVC040CB
     FM260900 05007KT P6SM SCT100 BKN300=

USA.gov is the U.S. government's official web portal to all federal, state and local government web resources and services.